Terminal Aerodrome Forecast
Issued by NWS North Platte, NE

Home | Current Version | Previous Version | Graphics & Text | Print | Product List | Glossary On
Versions: 1 2 3 4 5 6 7 8 9 10 11 12 13 14 15 16
961
FTUS43 KLBF 221441 AAB
TAFVTN
TAF AMD
KVTN 221441Z 2215/2312 02015G22KT P6SM BKN050
     FM222000 01012G18KT P6SM BKN060
     FM230100 33010G18KT P6SM BKN100=

USA.gov is the U.S. government's official web portal to all federal, state and local government web resources and services.